createdAt,value
2022-11-20T00:00:29.383Z,93.7
2022-11-20T00:02:29.184Z,93.7
2022-11-20T00:04:29.009Z,93.7
2022-11-20T00:06:31.257Z,93.7
2022-11-20T00:08:28.529Z,93.1
2022-11-20T00:10:28.309Z,93.1
2022-11-20T00:12:28.127Z,93.1
2022-11-20T00:14:27.858Z,93.1
2022-11-20T00:16:30.372Z,93.8
2022-11-20T00:18:28.503Z,93
2022-11-20T00:20:27.189Z,93
2022-11-20T00:22:27.088Z,93
2022-11-20T00:24:26.829Z,93
2022-11-20T00:26:27.965Z,93
2022-11-20T00:28:26.662Z,93.1
2022-11-20T00:30:26.144Z,93.1
2022-11-20T00:32:26.064Z,93.1
2022-11-20T00:34:25.738Z,93.1
2022-11-20T00:36:28.031Z,93.1
2022-11-20T00:38:25.216Z,93
2022-11-20T00:40:25.226Z,93
2022-11-20T00:42:24.858Z,93
2022-11-20T00:44:24.623Z,93
2022-11-20T00:46:26.369Z,93
2022-11-20T00:48:24.556Z,92.4
2022-11-20T00:50:23.950Z,92.4
2022-11-20T00:52:23.765Z,92.4
2022-11-20T00:54:24.141Z,92.4
2022-11-20T00:56:23.297Z,92.4
2022-11-20T00:58:24.158Z,92.8
2022-11-20T01:00:22.836Z,92.8
2022-11-20T01:02:23.029Z,92.8
2022-11-20T01:04:22.428Z,92.8
2022-11-20T01:06:24.564Z,92.8
2022-11-20T01:08:22.078Z,92.8
2022-11-20T01:10:21.954Z,92.8
2022-11-20T01:12:21.517Z,92.8
2022-11-20T01:14:21.513Z,92.8
2022-11-20T01:16:23.751Z,93
2022-11-20T01:18:20.827Z,92.8
2022-11-20T01:20:20.620Z,92.8
2022-11-20T01:22:20.418Z,92.8
2022-11-20T01:24:21.895Z,92.4
2022-11-20T01:26:21.723Z,92.4
2022-11-20T01:28:19.680Z,92.2
2022-11-20T01:30:19.517Z,92.2
2022-11-20T01:32:19.240Z,92.2
2022-11-20T01:34:20.996Z,92.2
2022-11-20T01:36:20.874Z,92.2
2022-11-20T01:38:19.250Z,91.8
2022-11-20T01:40:18.516Z,91.8
2022-11-20T01:42:18.137Z,91.8
2022-11-20T01:44:20.199Z,91.8
2022-11-20T01:46:19.042Z,91.8
2022-11-20T01:48:18.467Z,91.5
2022-11-20T01:50:22.868Z,91.5
2022-11-20T01:52:20.327Z,91.5
2022-11-20T01:54:20.585Z,91.5
2022-11-20T01:56:17.333Z,91.5
2022-11-20T01:58:20.705Z,91.5
2022-11-20T02:00:19.006Z,91.3
2022-11-20T02:02:16.066Z,91.3
2022-11-20T02:04:16.926Z,91.3
2022-11-20T02:06:19.868Z,91.3
2022-11-20T02:08:16.312Z,91.4
2022-11-20T02:10:15.572Z,91.4
2022-11-20T02:12:15.335Z,91.4
2022-11-20T02:14:15.198Z,91.9
2022-11-20T02:16:21.446Z,91.9
2022-11-20T02:18:17.761Z,91.8
2022-11-20T02:20:14.136Z,91.8
2022-11-20T02:22:19.624Z,91.8
2022-11-20T02:24:15.754Z,91.8
2022-11-20T02:26:16.303Z,91.8
2022-11-20T02:28:13.698Z,92.3
2022-11-20T02:30:13.198Z,92.3
2022-11-20T02:32:19.883Z,92.3
2022-11-20T02:34:12.544Z,92.3
2022-11-20T02:36:16.420Z,92.3
2022-11-20T02:38:12.695Z,91.8
2022-11-20T02:40:12.091Z,91.8
2022-11-20T02:42:11.563Z,91.8
2022-11-20T02:44:11.533Z,91.8
2022-11-20T02:46:11.177Z,91.8
2022-11-20T02:48:10.881Z,91.9
2022-11-20T02:50:11.116Z,91.9
2022-11-20T02:52:10.463Z,91.9
2022-11-20T02:54:10.230Z,91.9
2022-11-20T02:56:10.229Z,92.4
2022-11-20T02:58:09.819Z,92.2
2022-11-20T03:00:10.675Z,92.2
2022-11-20T03:02:09.657Z,92.2
2022-11-20T03:04:09.176Z,92.2
2022-11-20T03:06:08.969Z,92.2
2022-11-20T03:08:08.745Z,92.6
2022-11-20T03:10:09.186Z,92.6
2022-11-20T03:12:08.230Z,92.6
2022-11-20T03:14:08.068Z,92.6
2022-11-20T03:16:11.428Z,92.6
2022-11-20T03:18:07.516Z,92.7
2022-11-20T03:20:08.893Z,92.7
2022-11-20T03:22:07.072Z,92.7
2022-11-20T03:24:08.019Z,92.7
2022-11-20T03:26:09.801Z,92.7
2022-11-20T03:28:06.314Z,92.7
2022-11-20T03:30:07.435Z,92.7
2022-11-20T03:32:06.055Z,92.7
2022-11-20T03:34:05.663Z,92.7
2022-11-20T03:36:08.067Z,92.7
2022-11-20T03:38:05.147Z,92.1
2022-11-20T03:40:06.441Z,92.1
2022-11-20T03:42:04.742Z,91.8
2022-11-20T03:44:08.335Z,91.8
2022-11-20T03:46:04.766Z,91.8
2022-11-20T03:48:04.723Z,92.1
2022-11-20T03:50:04.396Z,92.1
2022-11-20T03:52:03.797Z,92.1
2022-11-20T03:54:06.181Z,92.1
2022-11-20T03:56:03.797Z,92.1
2022-11-20T03:58:02.815Z,92.1
2022-11-20T04:00:04.831Z,92.1
2022-11-20T04:02:02.504Z,92.5
2022-11-20T04:04:02.580Z,92.5
2022-11-20T04:06:04.238Z,92.5
2022-11-20T04:08:01.696Z,92
2022-11-20T04:10:01.431Z,92
2022-11-20T04:12:01.419Z,91.8
2022-11-20T04:14:03.289Z,91.8
2022-11-20T04:16:00.835Z,92.5
2022-11-20T04:18:00.753Z,92.6
2022-11-20T04:20:00.405Z,92.6
2022-11-20T04:22:00.151Z,92.6
2022-11-20T04:24:00.086Z,92.6
2022-11-20T04:26:03.282Z,92.6
2022-11-20T04:27:59.543Z,92.7
2022-11-20T04:29:59.374Z,92.7
2022-11-20T04:31:59.067Z,93
2022-11-20T04:34:00.300Z,92.4
2022-11-20T04:36:02.139Z,92.4
2022-11-20T04:37:58.364Z,92.5
2022-11-20T04:39:58.230Z,92.5
2022-11-20T04:41:57.934Z,92.5
2022-11-20T04:44:00.598Z,92.5
2022-11-20T04:45:59.072Z,92.5
2022-11-20T04:47:57.339Z,92.8
2022-11-20T04:49:57.141Z,92.8
2022-11-20T04:51:56.895Z,92.8
2022-11-20T04:53:57.033Z,92.8
2022-11-20T04:56:00.521Z,92.8
2022-11-20T04:57:56.309Z,92.5
2022-11-20T04:59:56.089Z,92.5
2022-11-20T05:01:55.935Z,92.5
2022-11-20T05:03:55.553Z,93
2022-11-20T05:05:55.507Z,93
2022-11-20T05:07:57.078Z,92.7
2022-11-20T05:09:54.906Z,92.7
2022-11-20T05:11:54.726Z,92.4
2022-11-20T05:13:54.441Z,92.4
2022-11-20T05:15:54.235Z,93
2022-11-20T05:17:54.026Z,93
2022-11-20T05:19:53.780Z,93
2022-11-20T05:21:53.674Z,93
2022-11-20T05:23:53.633Z,93
2022-11-20T05:25:58.719Z,93
2022-11-20T05:27:54.037Z,93
2022-11-20T05:29:52.661Z,93
2022-11-20T05:31:52.471Z,93
2022-11-20T05:33:52.283Z,92.3
2022-11-20T05:35:52.006Z,92.3
2022-11-20T05:37:51.814Z,92.4
2022-11-20T05:39:51.552Z,92.4
2022-11-20T05:41:51.353Z,92.4
2022-11-20T05:43:51.532Z,92.4
2022-11-20T05:45:54.371Z,92.4
2022-11-20T05:47:50.616Z,92.9
2022-11-20T05:49:50.505Z,92.9
2022-11-20T05:51:50.161Z,92.9
2022-11-20T05:53:50.155Z,92.9
2022-11-20T05:55:57.565Z,92.9
2022-11-20T05:57:49.497Z,92.8
2022-11-20T05:59:49.350Z,92.8
2022-11-20T06:01:49.072Z,92.8
2022-11-20T06:03:49.624Z,93.4
2022-11-20T06:05:48.819Z,93.4
2022-11-20T06:07:48.385Z,92.7
2022-11-20T06:09:48.429Z,92.7
2022-11-20T06:11:47.976Z,92.7
2022-11-20T06:13:48.512Z,92.7
2022-11-20T06:15:49.668Z,92.7
2022-11-20T06:17:48.217Z,93
2022-11-20T06:19:46.979Z,93.3
2022-11-20T06:21:48.229Z,93.3
2022-11-20T06:23:47.690Z,92.6
2022-11-20T06:25:46.357Z,92.6
2022-11-20T06:27:46.444Z,92
2022-11-20T06:29:45.902Z,92.6
2022-11-20T06:31:45.750Z,92.6
2022-11-20T06:33:45.825Z,92.6
2022-11-20T06:35:45.323Z,92.6
2022-11-20T06:37:45.128Z,92.5
2022-11-20T06:39:44.993Z,92.5
2022-11-20T06:41:44.623Z,92.5
2022-11-20T06:43:44.398Z,92.1
2022-11-20T06:45:44.241Z,92.1
2022-11-20T06:47:43.957Z,92.5
2022-11-20T06:49:43.722Z,92.6
2022-11-20T06:51:43.589Z,92.6
2022-11-20T06:53:43.637Z,93.3
2022-11-20T06:55:43.798Z,93.3
2022-11-20T06:57:42.981Z,93.2
2022-11-20T06:59:42.748Z,93.2
2022-11-20T07:01:42.464Z,93.2
2022-11-20T07:03:42.728Z,94
2022-11-20T07:05:42.081Z,94
2022-11-20T07:07:41.966Z,93.6
2022-11-20T07:09:41.848Z,93.6
2022-11-20T07:11:41.418Z,93.6
2022-11-20T07:13:41.293Z,93.6
2022-11-20T07:15:41.173Z,93.6
2022-11-20T07:17:40.905Z,93.8
2022-11-20T07:19:40.693Z,93.8
2022-11-20T07:21:40.447Z,93.8
2022-11-20T07:23:40.276Z,94.6
2022-11-20T07:25:40.050Z,94.6
2022-11-20T07:27:39.865Z,93.9
2022-11-20T07:29:39.628Z,94.5
2022-11-20T07:31:39.443Z,94.5
2022-11-20T07:33:39.315Z,94.5
2022-11-20T07:35:39.025Z,94.5
2022-11-20T07:37:38.876Z,94.8
2022-11-20T07:39:38.812Z,94.8
2022-11-20T07:41:38.472Z,94.8
2022-11-20T07:43:41.163Z,94.8
2022-11-20T07:45:38.100Z,94.8
2022-11-20T07:47:37.869Z,94.6
2022-11-20T07:49:37.656Z,94.4
2022-11-20T07:51:37.854Z,94.4
2022-11-20T07:53:37.265Z,94
2022-11-20T07:55:37.046Z,94
2022-11-20T07:57:37.029Z,93.8
2022-11-20T07:59:36.662Z,93.8
2022-11-20T08:01:36.452Z,93.8
2022-11-20T08:03:36.570Z,94.6
2022-11-20T08:05:36.085Z,94.6
2022-11-20T08:07:37.063Z,95.2
2022-11-20T08:09:36.161Z,95.2
2022-11-20T08:11:37.148Z,95.2
2022-11-20T08:13:35.239Z,94.4
2022-11-20T08:15:36.618Z,94.4
2022-11-20T08:17:34.888Z,94.9
2022-11-20T08:19:34.674Z,93.7
2022-11-20T08:21:38.398Z,94.4
2022-11-20T08:23:34.245Z,94.4
2022-11-20T08:25:35.343Z,94.4
2022-11-20T08:27:34.069Z,95
2022-11-20T08:29:33.702Z,95
2022-11-20T08:31:33.630Z,95
2022-11-20T08:33:33.356Z,95
2022-11-20T08:35:34.673Z,95
2022-11-20T08:37:32.897Z,95.4
2022-11-20T08:39:32.702Z,94
2022-11-20T08:41:32.600Z,94.7
2022-11-20T08:43:32.362Z,94.7
2022-11-20T08:45:34.516Z,94.7
2022-11-20T08:47:31.963Z,95.3
2022-11-20T08:49:31.807Z,95.3
2022-11-20T08:51:31.673Z,95.3
2022-11-20T08:53:31.389Z,95.3
2022-11-20T08:55:31.178Z,95.3
2022-11-20T08:57:32.340Z,95.3
2022-11-20T09:00:03.645Z,94.6
2022-11-20T09:01:30.709Z,94.6
2022-11-20T09:03:33.000Z,95.8
2022-11-20T09:05:30.444Z,94.7
2022-11-20T09:07:30.275Z,94.4
2022-11-20T09:09:29.888Z,93.7
2022-11-20T09:11:29.668Z,93.7
2022-11-20T09:13:30.014Z,93.7
2022-11-20T09:15:29.512Z,93.5
2022-11-20T09:17:29.066Z,93.4
2022-11-20T09:19:35.530Z,93.4
2022-11-20T09:21:28.739Z,93.4
2022-11-20T09:23:32.691Z,93.4
2022-11-20T09:25:28.360Z,93.4
2022-11-20T09:27:28.243Z,93.4
2022-11-20T09:29:27.972Z,92.9
2022-11-20T09:31:27.811Z,93.5
2022-11-20T09:33:27.732Z,93.5
2022-11-20T09:35:27.401Z,93.5
2022-11-20T09:37:27.213Z,93.7
2022-11-20T09:39:27.213Z,92.8
2022-11-20T09:41:45.863Z,92.8
2022-11-20T09:43:42.571Z,92.8
2022-11-20T09:45:39.578Z,92.8
2022-11-20T09:47:39.187Z,92.7
2022-11-20T09:49:35.673Z,92.6
2022-11-20T09:51:37.315Z,92.6
2022-11-20T09:53:35.353Z,92.6
2022-11-20T09:55:28.211Z,92.6
2022-11-20T09:57:32.627Z,91.4
2022-11-20T09:59:34.101Z,91.4
2022-11-20T10:01:31.439Z,91.4
2022-11-20T10:03:38.039Z,91.4
2022-11-20T10:05:31.683Z,91.4
2022-11-20T10:07:32.571Z,91.9
2022-11-20T10:09:31.422Z,92.7
2022-11-20T10:11:33.510Z,92
2022-11-20T10:13:38.873Z,92
2022-11-20T10:15:34.484Z,92
2022-11-20T10:17:34.184Z,91.5
2022-11-20T10:19:40.553Z,91.5
2022-11-20T10:21:30.834Z,92.2
2022-11-20T10:23:39.807Z,92.2
2022-11-20T10:25:38.926Z,91.5
2022-11-20T10:27:44.528Z,91.2
2022-11-20T10:29:32.278Z,92.1
2022-11-20T10:31:32.145Z,92.1
2022-11-20T10:33:24.115Z,92.1
2022-11-20T10:35:26.738Z,91
2022-11-20T10:37:25.544Z,91.4
2022-11-20T10:39:31.521Z,90.5
2022-11-20T10:41:26.801Z,90.5
2022-11-20T10:43:31.714Z,90.5
2022-11-20T10:45:34.618Z,90.5
2022-11-20T10:47:21.286Z,90.2
2022-11-20T10:49:21.523Z,90.2
2022-11-20T10:51:35.547Z,90.2
2022-11-20T10:53:41.187Z,89.8
2022-11-20T10:55:30.267Z,89.8
2022-11-20T10:57:31.850Z,89
2022-11-20T10:59:38.892Z,89.6
2022-11-20T11:01:21.863Z,89.6
2022-11-20T11:03:25.755Z,89.6
2022-11-20T11:05:36.635Z,89.6
2022-11-20T11:07:24.087Z,89.4
2022-11-20T11:09:36.700Z,89.4
2022-11-20T11:11:23.952Z,89.4
2022-11-20T11:13:21.555Z,89.4
2022-11-20T11:15:27.820Z,88.7
2022-11-20T11:17:28.776Z,88.6
2022-11-20T11:19:18.954Z,88.6
2022-11-20T11:21:26.831Z,88.6
2022-11-20T11:23:30.821Z,87.9
2022-11-20T11:25:25.346Z,87.9
2022-11-20T11:27:19.132Z,88.5
2022-11-20T11:29:18.693Z,87.9
2022-11-20T11:31:23.893Z,87.9
2022-11-20T11:33:20.499Z,87
2022-11-20T11:35:24.167Z,87.6
2022-11-20T11:37:21.334Z,86.8
2022-11-20T11:39:21.198Z,87.4
2022-11-20T11:41:20.582Z,87.4
2022-11-20T11:43:20.866Z,88.7
2022-11-20T11:45:17.741Z,86.7
2022-11-20T11:47:24.443Z,87.7
2022-11-20T11:49:19.087Z,88.1
2022-11-20T11:51:20.852Z,87.2
2022-11-20T11:53:19.309Z,87.2
2022-11-20T11:55:26.479Z,87.2
2022-11-20T11:57:24.139Z,87.5
2022-11-20T11:59:26.350Z,87.9
2022-11-20T12:01:29.395Z,87.9
2022-11-20T12:03:21.821Z,87.9
2022-11-20T12:05:20.659Z,88.7
2022-11-20T12:07:45.406Z,87.7
2022-11-20T12:09:18.116Z,88.3
2022-11-20T12:11:20.581Z,89
2022-11-20T12:13:35.161Z,88.4
2022-11-20T12:15:30.239Z,88.4
2022-11-20T12:17:14.810Z,88.2
2022-11-20T12:19:14.969Z,88.2
2022-11-20T12:21:21.285Z,89
2022-11-20T12:23:22.023Z,89
2022-11-20T12:25:20.979Z,89
2022-11-20T12:27:36.220Z,89.1
2022-11-20T12:29:26.027Z,89.1
2022-11-20T12:31:31.911Z,89.1
2022-11-20T12:33:25.665Z,89.7
2022-11-20T12:35:31.593Z,89.1
2022-11-20T12:37:27.428Z,89.2
2022-11-20T12:39:25.918Z,89.2
2022-11-20T12:41:19.914Z,89.2
2022-11-20T12:43:19.708Z,89.2
2022-11-20T12:45:29.349Z,89.8
2022-11-20T12:47:22.598Z,89.4
2022-11-20T12:49:24.643Z,89.4
2022-11-20T12:51:30.025Z,89.3
2022-11-20T12:53:22.549Z,89.3
2022-11-20T12:55:34.010Z,89.3
2022-11-20T12:57:18.699Z,89
2022-11-20T12:59:28.429Z,89
2022-11-20T13:01:23.377Z,89
2022-11-20T13:03:24.086Z,90
2022-11-20T13:05:21.257Z,90
2022-11-20T13:07:14.191Z,89.6
2022-11-20T13:09:15.407Z,89
2022-11-20T13:11:16.953Z,89
2022-11-20T13:13:17.625Z,89
2022-11-20T13:15:36.218Z,89.7
2022-11-20T13:17:14.731Z,90.2
2022-11-20T13:19:13.529Z,90.2
2022-11-20T13:21:15.700Z,90.2
2022-11-20T13:23:09.466Z,90.2
2022-11-20T13:25:13.851Z,89.3
2022-11-20T13:27:24.073Z,89.9
2022-11-20T13:37:26.937Z,90.1
2022-11-20T13:39:09.484Z,90.1
2022-11-20T13:41:08.772Z,90.1
2022-11-20T13:43:16.373Z,90.1
2022-11-20T13:45:21.606Z,90.1
2022-11-20T13:47:21.644Z,89.3
2022-11-20T13:49:10.500Z,89.3
2022-11-20T13:51:27.985Z,89.3
2022-11-20T13:53:22.410Z,89.3
2022-11-20T13:55:16.872Z,90.1
2022-11-20T13:57:20.334Z,90.3
2022-11-20T13:59:17.402Z,89.3
2022-11-20T14:01:11.587Z,90
2022-11-20T14:03:15.289Z,90
2022-11-20T14:05:06.410Z,90
2022-11-20T14:07:06.472Z,90
2022-11-20T14:09:05.320Z,89.5
2022-11-20T14:11:13.074Z,89.5
2022-11-20T14:13:15.683Z,89.4
2022-11-20T14:15:05.258Z,89.4
2022-11-20T14:17:07.051Z,90
2022-11-20T14:19:28.316Z,90.5
2022-11-20T14:21:04.298Z,90.5
2022-11-20T14:23:04.346Z,90.5
2022-11-20T14:25:18.669Z,90.5
2022-11-20T14:27:04.125Z,90.5
2022-11-20T14:29:03.555Z,90.7
2022-11-20T14:31:03.463Z,90
2022-11-20T14:33:04.884Z,90
2022-11-20T14:35:08.847Z,89.5
2022-11-20T14:37:16.765Z,89.1
2022-11-20T14:39:02.870Z,89.1
2022-11-20T14:41:18.937Z,89.1
2022-11-20T14:43:17.064Z,89.1
2022-11-20T14:45:03.263Z,90.1
2022-11-20T14:47:03.880Z,90.1
2022-11-20T14:49:03.178Z,89.5
2022-11-20T14:51:02.006Z,90.1
2022-11-20T14:53:02.714Z,90.1
2022-11-20T14:55:01.518Z,90.1
2022-11-20T14:57:03.751Z,90.1
2022-11-20T14:59:01.011Z,90.1
2022-11-20T15:01:02.961Z,90.1
2022-11-20T15:03:00.828Z,89.5
2022-11-20T15:05:02.147Z,90.2
2022-11-20T15:07:01.168Z,90.2
2022-11-20T15:09:00.287Z,90.1
2022-11-20T15:11:00.356Z,90.1
2022-11-20T15:13:06.060Z,90.1
2022-11-20T15:15:00.710Z,90.1
2022-11-20T15:16:59.826Z,90.8
2022-11-20T15:19:00.407Z,90.8
2022-11-20T15:21:02.298Z,90.8
2022-11-20T15:22:59.423Z,90.8
2022-11-20T15:24:58.766Z,91.5
2022-11-20T15:26:58.565Z,91.5
2022-11-20T15:28:58.889Z,90.9
2022-11-20T15:30:58.867Z,90.4
2022-11-20T15:32:58.105Z,90.4
2022-11-20T15:34:57.912Z,91.3
2022-11-20T15:36:57.768Z,91.3
2022-11-20T15:38:57.600Z,90.6
2022-11-20T15:40:58.075Z,90.6
2022-11-20T15:42:57.277Z,91.4
2022-11-20T15:44:57.111Z,91.4
2022-11-20T15:46:57.177Z,91.4
2022-11-20T15:48:59.942Z,91.6
2022-11-20T15:50:59.866Z,91.6
2022-11-20T15:52:56.416Z,91.6
2022-11-20T15:54:56.297Z,91.6
2022-11-20T15:56:56.151Z,90.6
2022-11-20T15:58:55.908Z,91.3
2022-11-20T16:00:56.296Z,91.3
2022-11-20T16:02:55.771Z,91.9
2022-11-20T16:04:55.483Z,91.9
2022-11-20T16:06:55.904Z,91.9
2022-11-20T16:08:55.046Z,92.4
2022-11-20T16:10:54.973Z,91.9
2022-11-20T16:12:55.011Z,91.9
2022-11-20T16:14:54.918Z,91.9
2022-11-20T16:16:54.512Z,91.9
2022-11-20T16:18:54.446Z,91.3
2022-11-20T16:20:55.126Z,91.3
2022-11-20T16:22:54.083Z,91.3
2022-11-20T16:24:53.837Z,91.3
2022-11-20T16:26:54.052Z,91.3
2022-11-20T16:28:53.599Z,91.6
2022-11-20T16:30:53.597Z,90.8
2022-11-20T16:32:53.174Z,91.4
2022-11-20T16:34:52.979Z,91.4
2022-11-20T16:36:52.829Z,91.4
2022-11-20T16:38:53.762Z,91.9
2022-11-20T16:40:52.506Z,91.9
2022-11-20T16:42:52.429Z,91.9
2022-11-20T16:44:52.128Z,91.9
2022-11-20T16:46:51.994Z,91.9
2022-11-20T16:48:54.672Z,92.2
2022-11-20T16:50:53.236Z,92.2
2022-11-20T16:52:51.439Z,92.2
2022-11-20T16:54:51.352Z,91.4
2022-11-20T16:56:51.208Z,91.9
2022-11-20T16:58:52.983Z,92.1
2022-11-20T17:00:52.006Z,92.1
2022-11-20T17:02:50.700Z,92.1
2022-11-20T17:04:50.564Z,92.4
2022-11-20T17:06:51.053Z,92.4
2022-11-20T17:08:50.288Z,92.2
2022-11-20T17:10:50.082Z,92.2
2022-11-20T17:12:50.255Z,91.5
2022-11-20T17:14:49.776Z,91.5
2022-11-20T17:16:49.588Z,91.5
2022-11-20T17:18:49.662Z,92
2022-11-20T17:20:51.713Z,92.6
2022-11-20T17:22:49.487Z,91.9
2022-11-20T17:24:49.695Z,91.1
2022-11-20T17:26:49.593Z,91.1
2022-11-20T17:28:54.520Z,90.6
2022-11-20T17:30:48.424Z,91.9
2022-11-20T17:32:49.617Z,90.7
2022-11-20T17:34:48.232Z,90.7
2022-11-20T17:36:48.027Z,90.7
2022-11-20T17:38:47.952Z,91
2022-11-20T17:40:47.696Z,91
2022-11-20T17:42:47.510Z,91
2022-11-20T17:44:47.490Z,91
2022-11-20T17:46:47.194Z,91
2022-11-20T17:48:48.983Z,91.1
2022-11-20T17:50:46.917Z,91.1
2022-11-20T17:52:46.783Z,91.1
2022-11-20T17:54:46.641Z,91.1
2022-11-20T17:56:46.401Z,91.4
2022-11-20T17:58:46.251Z,91.3
2022-11-20T18:00:46.121Z,91.3
2022-11-20T18:02:45.977Z,91.3
2022-11-20T18:04:45.797Z,92
2022-11-20T18:06:45.816Z,92
2022-11-20T18:08:46.689Z,90.6
2022-11-20T18:10:45.345Z,91.3
2022-11-20T18:12:45.431Z,91.3
2022-11-20T18:14:46.248Z,91.8
2022-11-20T18:16:47.193Z,91.8
2022-11-20T18:18:44.665Z,91.7
2022-11-20T18:20:44.530Z,91.1
2022-11-20T18:22:44.551Z,91.1
2022-11-20T18:24:44.938Z,92.1
2022-11-20T18:26:44.828Z,92.1
2022-11-20T18:28:43.931Z,91
2022-11-20T18:30:43.840Z,91
2022-11-20T18:32:43.572Z,91.6
2022-11-20T18:34:43.568Z,91.6
2022-11-20T18:36:43.787Z,91.6
2022-11-20T18:38:44.916Z,92.2
2022-11-20T18:40:43.406Z,92.2
2022-11-20T18:42:42.822Z,91.6
2022-11-20T18:44:42.630Z,91.6
2022-11-20T18:46:43.445Z,91.6
2022-11-20T18:48:42.401Z,92
2022-11-20T18:50:42.191Z,92.4
2022-11-20T18:52:42.897Z,92.4
2022-11-20T18:54:42.021Z,92.4
2022-11-20T18:56:41.752Z,92.4
2022-11-20T18:58:41.659Z,92.5
2022-11-20T19:00:41.447Z,93
2022-11-20T19:02:42.979Z,92.1
2022-11-20T19:04:41.262Z,92.1
2022-11-20T19:06:43.207Z,92.1
2022-11-20T19:08:40.769Z,93.4
2022-11-20T19:10:40.631Z,92.7
2022-11-20T19:12:40.523Z,92.7
2022-11-20T19:14:40.414Z,92.7
2022-11-20T19:16:40.286Z,92.7
2022-11-20T19:18:40.243Z,92.4
2022-11-20T19:20:39.891Z,92
2022-11-20T19:22:39.737Z,92
2022-11-20T19:24:39.544Z,92
2022-11-20T19:26:39.411Z,92
2022-11-20T19:28:39.193Z,92.2
2022-11-20T19:30:39.038Z,92.6
2022-11-20T19:32:38.906Z,92.6
2022-11-20T19:34:38.902Z,93.2
2022-11-20T19:36:44.489Z,93.2
2022-11-20T19:38:42.533Z,93.3
2022-11-20T19:40:38.378Z,92.6
2022-11-20T19:42:38.182Z,92.1
2022-11-20T19:44:38.034Z,92.3
2022-11-20T19:46:39.345Z,93
2022-11-20T19:48:37.849Z,93
2022-11-20T19:50:37.566Z,92.5
2022-11-20T19:52:37.414Z,91.5
2022-11-20T19:54:37.306Z,92.3
2022-11-20T19:56:37.033Z,92.9
2022-11-20T19:58:37.403Z,92.5
2022-11-20T20:00:36.784Z,92.5
2022-11-20T20:02:36.564Z,92.5
2022-11-20T20:04:36.518Z,92.5
2022-11-20T20:06:36.796Z,93.3
2022-11-20T20:08:36.886Z,93.3
2022-11-20T20:10:36.121Z,92.7
2022-11-20T20:12:35.755Z,92.7
2022-11-20T20:14:35.601Z,92.7
2022-11-20T20:16:35.723Z,93.5
2022-11-20T20:18:35.415Z,92.8
2022-11-20T20:20:35.126Z,92.8
2022-11-20T20:22:34.968Z,92.8
2022-11-20T20:24:34.857Z,92.8
2022-11-20T20:26:34.722Z,92.8
2022-11-20T20:28:36.165Z,93.1
2022-11-20T20:30:35.742Z,93.7
2022-11-20T20:32:34.289Z,93.7
2022-11-20T20:34:34.245Z,93.7
2022-11-20T20:36:33.854Z,93.7
2022-11-20T20:38:34.541Z,93.8
2022-11-20T20:40:33.787Z,93.8
2022-11-20T20:42:33.321Z,93.8
2022-11-20T20:44:33.285Z,93.8
2022-11-20T20:46:33.457Z,93.8
2022-11-20T20:48:32.851Z,93.8
2022-11-20T20:50:32.717Z,93.8
2022-11-20T20:52:33.418Z,93.2
2022-11-20T20:54:34.457Z,93.2
2022-11-20T20:56:32.203Z,93.2
2022-11-20T20:58:32.287Z,94
2022-11-20T21:00:31.825Z,94
2022-11-20T21:02:31.885Z,94
2022-11-20T21:04:31.502Z,94.5
2022-11-20T21:06:31.341Z,93.8
2022-11-20T21:08:32.153Z,94.2
2022-11-20T21:10:31.274Z,94.2
2022-11-20T21:12:30.797Z,94.2
2022-11-20T21:14:31.181Z,94.3
2022-11-20T21:16:30.499Z,94.3
2022-11-20T21:18:31.683Z,94.3
2022-11-20T21:20:30.261Z,94.3
2022-11-20T21:22:33.903Z,93.7
2022-11-20T21:24:31.441Z,94.2
2022-11-20T21:26:29.676Z,94.2
2022-11-20T21:28:31.565Z,93.7
2022-11-20T21:30:29.429Z,93.7
2022-11-20T21:32:29.791Z,93.7
2022-11-20T21:34:29.283Z,93.7
2022-11-20T21:36:30.761Z,94.4
2022-11-20T21:38:28.757Z,94.5
2022-11-20T21:40:28.708Z,94.5
2022-11-20T21:42:28.462Z,94.5
2022-11-20T21:44:32.070Z,94.5
2022-11-20T21:46:28.215Z,94.5
2022-11-20T21:48:29.330Z,94.5
2022-11-20T21:50:27.812Z,94.5
2022-11-20T21:52:27.703Z,94.5
2022-11-20T21:54:27.701Z,94.5
2022-11-20T21:56:27.616Z,94.5
2022-11-20T21:58:27.855Z,94.9
2022-11-20T22:00:28.209Z,94.9
2022-11-20T22:02:26.850Z,93.6
2022-11-20T22:04:26.828Z,94.1
2022-11-20T22:06:31.406Z,94.1
2022-11-20T22:08:26.417Z,94.1
2022-11-20T22:10:26.234Z,94.6
2022-11-20T22:12:26.286Z,94.6
2022-11-20T22:14:26.298Z,94.1
2022-11-20T22:16:26.021Z,94.6
2022-11-20T22:18:25.457Z,94.6
2022-11-20T22:20:25.382Z,94.6
2022-11-20T22:22:25.111Z,94.6
2022-11-20T22:24:25.455Z,94.6
2022-11-20T22:26:27.140Z,93.6
2022-11-20T22:28:24.734Z,93
2022-11-20T22:30:24.774Z,93
2022-11-20T22:32:24.353Z,93
2022-11-20T22:34:24.825Z,93
2022-11-20T22:36:25.465Z,94
2022-11-20T22:38:29.361Z,94.1
2022-11-20T22:40:23.676Z,94.5
2022-11-20T22:42:23.471Z,94.5
2022-11-20T22:44:23.911Z,94.5
2022-11-20T22:46:24.941Z,94.5
2022-11-20T22:48:22.968Z,94.6
2022-11-20T22:50:22.892Z,94.6
2022-11-20T22:52:22.723Z,94.6
2022-11-20T22:54:23.035Z,94.6
2022-11-20T22:56:22.791Z,94.6
2022-11-20T22:58:22.575Z,94.7
2022-11-20T23:00:22.295Z,94.7
2022-11-20T23:02:22.841Z,94.7
2022-11-20T23:04:22.177Z,94.7
2022-11-20T23:06:22.183Z,94.7
2022-11-20T23:08:21.309Z,94.7
2022-11-20T23:10:21.208Z,94.7
2022-11-20T23:12:21.025Z,94.7
2022-11-20T23:14:26.346Z,94.7
2022-11-20T23:16:20.701Z,94.7
2022-11-20T23:18:20.657Z,94.7
2022-11-20T23:20:20.347Z,94.7
2022-11-20T23:22:20.195Z,94.7
2022-11-20T23:24:19.981Z,94.7
2022-11-20T23:26:22.075Z,94.7
2022-11-20T23:28:19.695Z,94.9
2022-11-20T23:30:19.912Z,94.9
2022-11-20T23:32:19.338Z,94.9
2022-11-20T23:34:19.319Z,94.9
2022-11-20T23:36:19.277Z,94.9
2022-11-20T23:38:19.037Z,94.4
2022-11-20T23:40:18.685Z,94.4
2022-11-20T23:42:18.462Z,94.4
2022-11-20T23:44:18.306Z,94.4
2022-11-20T23:46:18.176Z,94.4
2022-11-20T23:48:19.206Z,94.7
2022-11-20T23:50:17.823Z,94
2022-11-20T23:52:17.633Z,94
2022-11-20T23:54:17.487Z,94
2022-11-20T23:56:17.361Z,94.5
2022-11-20T23:58:17.862Z,94.1
